Austin, TX (78759)

7:27 AM CDT on March 30, 2017 (GMT -0500)
Great Hills | | Change Station

Elev 837 ft 30.41 °N, 97.76 °W | Updated 2 minutes ago

Clear
Clear
54.0 °F
Feels Like 54.0 °F
N
3.0
Wind Variable Wind from NW
Gusts 3.0 mph

Today
High -- | Low -- °F
--% Chance of Precip.
Yesterday
High -- | Low -- °F
Precip. -- in
Pressure 29.91 in
Visibility 10.0 miles
Clouds Clear
Dew Point 46 °F
Humidity 77%
Rainfall Not available.
Snow Depth Not available.
7:22 AM 7:48 PM
Waxing Crescent, 8% visible
METAR KATT 301151Z AUTO 31003KT 10SM CLR 12/08 A2993 RMK AO2 SLP129 T01220083 10172 20122 50000 $
Pressure 29.91 in
Visibility 10.0 miles
Clouds Clear
Dew Point 46 °F
Humidity 77%
Rainfall Not available.
Snow Depth Not available.
7:22 AM 7:48 PM
Waxing Crescent, 8% visible
METAR KATT 301151Z AUTO 31003KT 10SM CLR 12/08 A2993 RMK AO2 SLP129 T01220083 10172 20122 50000 $

Get Severe Weather Alerts

Thanks for signing up!

Be on the lookout for a verification email in your inbox.

You'll start receiving the daily forecast at 8 AM.

×

10-Day Weather Forecast

Almanac

Astronomy

Mar. 30, 2017 Rise Set
Actual Time
Civil Twilight
Nautical Twilight
Astronomical Twilight
Moon
Length of Visible Light
Length of Day
Tomorrow will be .
, % of the Moon is Illuminated

Today's Extremes

State Highs State Lows

Community

WunderPhotos

Upload Photos

1,962,540 photos uploaded!

WunderBlog® & News

Nearby

Air Quality

  Air Quality AQ Index Pollutant
Not available.

Snow Depth

Station Depth Elevation

Earthquake Activity

City Distance Mag. Time & Date
Minimum magnitude displayed is 2.5.

Earthquake Activity

City Distance Mag. Time & Date
Minimum magnitude displayed is 2.5.

Coastal Water Temperatures

Place Temperature

Stations

Nearby Weather Stations

Station Location Temp. Windchill Dew Point Humidity Wind Precip. Elev Updated Type
                   

Watches & Warnings

There are currently no watches in effect.